• Join FlightAware (Why Join?)
  • Login
  • US Flag 
11:18PM EST


 

Airport Tracker/Info


-or-


 

Live Flight TrackerFlight Track Log ✈ DLA1905 ✈ 24-Apr-2013 ✈ LIMF / TRN - EDDM / MUC

Flight Track Log - Related Links

Times and Time Zones

All times are in EDT time to prevent confusion due to time zone crossing. See the DLA1905 flight status page for this flight to view local times or setup timezone preferences in your user account.

Time Position Orientation Groundspeed Altitude Reporting Facility
EDT Latitude Longitude Course Direction KTS MPH feet Rate Location/Type
01:24AM 45.7081 8.2710 40° Northeast  Level Estimated
01:25AM 45.7643 8.3407 41° Northeast  Level Estimated
01:26AM 45.8204 8.4106 41° Northeast  Level Estimated
01:27AM 45.8765 8.4806 41° Northeast  Level Estimated
01:28AM 45.9325 8.5508 41° Northeast  Level Estimated
01:29AM 45.9885 8.6211 41° Northeast  Level Estimated
01:30AM 46.0444 8.6915 41° Northeast  Level Estimated
01:31AM 46.1003 8.7621 41° Northeast  Level Estimated
01:32AM 46.1562 8.8328 41° Northeast  Level Estimated
01:33AM 46.2120 8.9037 41° Northeast  Level Estimated
01:34AM 46.2678 8.9747 41° Northeast  Level Estimated
01:35AM 46.3235 9.0459 41° Northeast  Level Estimated
01:36AM 46.3792 9.1172 41° Northeast  Level Estimated
01:37AM 46.4348 9.1886 41° Northeast  Level Estimated
01:38AM 46.4904 9.2602 42° Northeast  Level Estimated
01:39AM 46.5460 9.3320 42° Northeast  Level Estimated
01:40AM 46.6015 9.4038 42° Northeast  Level Estimated
01:41AM 46.6570 9.4759 42° Northeast  Level Estimated
01:42AM 46.7124 9.5481 42° Northeast  Level Estimated
01:43AM 46.7677 9.6204 42° Northeast  Level Estimated
01:44AM 46.8231 9.6929 42° Northeast  Level Estimated
01:45AM 46.8783 9.7655 42° Northeast  Level Estimated
01:46AM 46.9336 9.8383 42° Northeast  Level Estimated
01:47AM 46.9888 9.9112 42° Northeast  Level Estimated
01:48AM 47.0439 9.9843 42° Northeast  Level Estimated
01:49AM 47.0990 10.0575 42° Northeast  Level Estimated
01:50AM 47.1540 10.1309 42° Northeast  Level Estimated
01:51AM 47.2090 10.2045 42° Northeast  Level Estimated
01:52AM 47.2640 10.2781 42° Northeast  Level Estimated
01:53AM 47.3189 10.3520 42° Northeast  Level Estimated
01:54AM 47.3737 10.4260 42° Northeast  Level Estimated
01:55AM 47.4286 10.5001 42° Northeast  Level Estimated
01:56AM 47.4833 10.5744 43° Northeast  Level Estimated
01:57AM 47.5380 10.6489 43° Northeast  Level Estimated
01:58AM 47.5927 10.7235 43° Northeast  Level Estimated
01:59AM 47.6473 10.7983 43° Northeast  Level Estimated
02:00AM 47.7019 10.8732 43° Northeast  Level Estimated
02:01AM 47.7564 10.9483 43° Northeast  Level Estimated
02:02AM 47.8109 11.0236 43° Northeast  Level Estimated
02:03AM 47.8653 11.0990 43° Northeast  Level Estimated
02:04AM 47.9197 11.1745 43° Northeast  Level Estimated
02:05AM 47.9740 11.2502 43° Northeast  Level Estimated
02:06AM 48.0283 11.3261 43° Northeast  Level Estimated
02:07AM 48.0825 11.4022 43° Northeast  Level Estimated
02:08AM 48.1367 11.4783 43° Northeast  Level Estimated
02:09AM 48.1908 11.5547 43° Northeast  Level Estimated
02:10AM 48.2448 11.6312 43° Northeast  Level Estimated
02:11AM 48.2989 11.7079 43° Northeast  Level Estimated
02:12AM 48.3528 11.7847 43° Northeast  Level Estimated
02:13AM 48.3538 11.7861 43° Northeast  Level Estimated
02:14AM 48.3538 11.7861 318° Northwest  Level Estimated
02:15AM 48.3538 11.7861 318° Northwest  Level Estimated
02:16AM 48.3538 11.7861 318° Northwest  Level Estimated
02:17AM 48.3538 11.7861 318° Northwest  Level Estimated
02:18AM 48.3538 11.7861 318° Northwest  Level Estimated
02:19AM 48.3538 11.7861 318° Northwest  Level Estimated
02:20AM 48.3538 11.7861 318° Northwest  Level Estimated
02:21AM 48.3538 11.7861 318° Northwest  Level Estimated
02:22AM 48.3538 11.7861 318° Northwest  Level Estimated
02:23AM 48.3538 11.7861 318° Northwest  Level Estimated
02:24AM 48.3538 11.7861 318° Northwest  Level Estimated
02:25AM 48.3538 11.7861 318° Northwest  Level Estimated
02:26AM 48.3538 11.7861 318° Northwest  Level Estimated
02:27AM 48.3538 11.7861 318° Northwest  Level Estimated
02:28AM 48.3538 11.7861 318° Northwest  Level Estimated